KDYR

Dyersburg Regional Airport

Dyersburg, Tennessee, USA
METAR KDYR 221656Z AUTO 25004KT 10SM CLR 28/21 A3007 RMK AO2 LTG DSNT S SLP191 T02830206 PNO $
Observed Flight Rules
May-22 @ 16:56 UTC (50 minutes ago) Visual Flight Rules
Wind Visibility Clouds
250° at 4 knots 10 miles
  • Clear skies
Temperatures Readings
Current 28°C / 82°F
Dewpoint 21°C / 70°F
Humidity 66%
Altimeter 30.07" Hg
Pressure 1019.1 hPa
Elevation 103
METAR KDYR 221656Z AUTO 25004KT 10SM CLR 28/21 A3007 RMK AO2 LTG DSNT S SLP191 T02830206 PNO $
Observed Flight Rules
May-22 @ 16:56 UTC
(50 minutes ago)
VFR
Wind Visibility
250° at 4 knots 10 miles
Clouds
  • Clear skies
Temperature Dewpoint
28°C / 82°F 21°C / 70°F
Humidity Altimeter Pressure
66% 30.07" Hg 1019.1 hPa